createdAt,value
2023-01-19T00:00:09.518Z,-0.3
2023-01-19T00:01:09.508Z,-0.3
2023-01-19T00:02:09.493Z,-0.3
2023-01-19T00:03:09.502Z,-0.3
2023-01-19T00:04:09.488Z,-0.3
2023-01-19T00:05:09.493Z,-0.3
2023-01-19T00:06:09.574Z,-0.3
2023-01-19T00:07:09.488Z,-0.3
2023-01-19T00:08:09.613Z,-0.3
2023-01-19T00:09:09.486Z,-0.3
2023-01-19T00:10:09.503Z,-0.3
2023-01-19T00:11:09.493Z,-0.3
2023-01-19T00:12:09.488Z,-0.3
2023-01-19T00:13:09.488Z,-0.3
2023-01-19T00:14:09.488Z,-0.3
2023-01-19T00:15:09.506Z,-0.3
2023-01-19T00:16:09.532Z,-0.3
2023-01-19T00:17:09.487Z,-0.3
2023-01-19T00:18:10.857Z,-0.3
2023-01-19T00:19:09.493Z,-0.3
2023-01-19T00:20:09.494Z,-0.3
2023-01-19T00:21:09.479Z,-0.3
2023-01-19T00:22:09.488Z,-0.4
2023-01-19T00:23:09.548Z,-0.3
2023-01-19T00:24:09.484Z,-0.3
2023-01-19T00:25:09.485Z,-0.3
2023-01-19T00:26:09.485Z,-0.3
2023-01-19T00:27:09.491Z,-0.3
2023-01-19T00:28:09.482Z,-0.3
2023-01-19T00:29:09.482Z,-0.3
2023-01-19T00:30:09.484Z,-0.3
2023-01-19T00:31:09.513Z,-0.3
2023-01-19T00:32:09.516Z,-0.3
2023-01-19T00:33:09.491Z,-0.3
2023-01-19T00:34:09.486Z,-0.3
2023-01-19T00:35:09.487Z,-0.3
2023-01-19T00:36:09.497Z,-0.3
2023-01-19T00:37:09.484Z,-0.3
2023-01-19T00:38:09.494Z,-0.3
2023-01-19T00:39:09.489Z,-0.3
2023-01-19T00:40:09.511Z,-0.3
2023-01-19T00:41:09.488Z,-0.3
2023-01-19T00:42:09.484Z,-0.3
2023-01-19T00:43:09.494Z,-0.3
2023-01-19T00:44:09.491Z,-0.3
2023-01-19T00:45:09.487Z,-0.3
2023-01-19T00:46:09.529Z,-0.4
2023-01-19T00:47:09.487Z,-0.4
2023-01-19T00:48:09.485Z,-0.4
2023-01-19T00:49:09.488Z,-0.3
2023-01-19T00:50:09.481Z,-0.3
2023-01-19T00:51:09.488Z,-0.4
2023-01-19T00:52:09.488Z,-0.4
2023-01-19T00:53:09.485Z,-0.4
2023-01-19T00:54:09.492Z,-0.4
2023-01-19T00:55:09.495Z,-0.4
2023-01-19T00:56:09.487Z,-0.4
2023-01-19T00:57:09.482Z,-0.4
2023-01-19T00:58:09.496Z,-0.4
2023-01-19T00:59:09.495Z,-0.4
2023-01-19T01:00:09.515Z,-0.4
2023-01-19T01:01:09.612Z,-0.4
2023-01-19T01:02:09.584Z,-0.4
2023-01-19T01:03:09.568Z,-0.4
2023-01-19T01:04:09.485Z,-0.4
2023-01-19T01:05:09.537Z,-0.4
2023-01-19T01:06:09.482Z,-0.4
2023-01-19T01:07:09.480Z,-0.4
2023-01-19T01:08:09.490Z,-0.4
2023-01-19T01:09:09.481Z,-0.4
2023-01-19T01:10:09.501Z,-0.4
2023-01-19T01:11:09.489Z,-0.4
2023-01-19T01:12:09.491Z,-0.3
2023-01-19T01:13:20.045Z,-0.3
2023-01-19T01:14:09.501Z,-0.3
2023-01-19T01:15:09.577Z,-0.2
2023-01-19T01:16:09.523Z,-0.1
2023-01-19T01:17:09.487Z,-0.1
2023-01-19T01:18:09.499Z,-0.1
2023-01-19T01:19:09.482Z,0
2023-01-19T01:20:09.495Z,0.1
2023-01-19T01:21:09.485Z,0.1
2023-01-19T01:22:09.487Z,0.1
2023-01-19T01:23:09.516Z,0.2
2023-01-19T01:24:09.489Z,0.2
2023-01-19T01:25:09.494Z,0.2
2023-01-19T01:26:09.664Z,0.2
2023-01-19T01:27:09.852Z,0.2
2023-01-19T01:28:09.697Z,0.2
2023-01-19T01:29:09.492Z,0.2
2023-01-19T01:30:09.507Z,0.1
2023-01-19T01:31:09.495Z,0.1
2023-01-19T01:32:09.483Z,0.1
2023-01-19T01:33:09.490Z,0.1
2023-01-19T01:34:09.488Z,0.1
2023-01-19T01:35:09.481Z,0
2023-01-19T01:36:09.517Z,0
2023-01-19T01:37:09.482Z,0
2023-01-19T01:38:09.484Z,-0.1
2023-01-19T01:39:09.492Z,-0.1
2023-01-19T01:40:09.486Z,-0.1
2023-01-19T01:41:09.487Z,-0.1
2023-01-19T01:42:09.488Z,-0.1
2023-01-19T01:43:09.492Z,-0.1
2023-01-19T01:44:09.486Z,-0.1
2023-01-19T01:45:09.486Z,-0.1
2023-01-19T01:46:09.495Z,-0.2
2023-01-19T01:47:09.489Z,-0.2
2023-01-19T01:48:09.499Z,-0.2
2023-01-19T01:49:09.502Z,-0.2
2023-01-19T01:50:09.495Z,-0.2
2023-01-19T01:51:09.481Z,-0.2
2023-01-19T01:52:09.485Z,-0.2
2023-01-19T01:53:09.690Z,-0.3
2023-01-19T01:54:09.492Z,-0.3
2023-01-19T01:55:09.491Z,-0.3
2023-01-19T01:56:09.494Z,-0.3
2023-01-19T01:57:09.485Z,-0.3
2023-01-19T01:58:09.489Z,-0.3
2023-01-19T01:59:09.493Z,-0.3
2023-01-19T02:00:09.521Z,-0.3
2023-01-19T02:01:09.662Z,-0.3
2023-01-19T02:02:09.481Z,-0.3
2023-01-19T02:03:09.509Z,-0.3
2023-01-19T02:04:09.492Z,-0.3
2023-01-19T02:05:09.488Z,-0.3
2023-01-19T02:06:09.498Z,-0.3
2023-01-19T02:07:09.486Z,-0.3
2023-01-19T02:08:09.488Z,-0.3
2023-01-19T02:09:09.487Z,-0.3
2023-01-19T02:10:09.490Z,-0.3
2023-01-19T02:11:09.499Z,-0.3
2023-01-19T02:12:09.509Z,-0.3
2023-01-19T02:13:09.492Z,-0.3
2023-01-19T02:14:09.489Z,-0.3
2023-01-19T02:15:09.482Z,-0.4
2023-01-19T02:16:09.496Z,-0.4
2023-01-19T02:17:09.510Z,-0.4
2023-01-19T02:18:09.484Z,-0.3
2023-01-19T02:19:09.486Z,-0.3
2023-01-19T02:20:09.492Z,-0.3
2023-01-19T02:21:09.507Z,-0.3
2023-01-19T02:22:09.484Z,-0.2
2023-01-19T02:23:09.483Z,-0.1
2023-01-19T02:24:09.483Z,-0.1
2023-01-19T02:25:09.505Z,-0.1
2023-01-19T02:26:09.520Z,-0.1
2023-01-19T02:27:09.487Z,-0.1
2023-01-19T02:28:09.480Z,-0.1
2023-01-19T02:29:09.483Z,-0.1
2023-01-19T02:30:09.502Z,-0.1
2023-01-19T02:31:09.486Z,-0.1
2023-01-19T02:32:09.490Z,-0.1
2023-01-19T02:33:09.483Z,-0.1
2023-01-19T02:34:09.493Z,-0.1
2023-01-19T02:35:09.486Z,-0.1
2023-01-19T02:36:09.487Z,-0.1
2023-01-19T02:37:09.559Z,-0.1
2023-01-19T02:38:09.488Z,-0.1
2023-01-19T02:39:09.500Z,0
2023-01-19T02:40:09.484Z,0
2023-01-19T02:41:09.694Z,0
2023-01-19T02:42:10.166Z,0
2023-01-19T02:43:10.360Z,0.1
2023-01-19T02:44:09.487Z,0.1
2023-01-19T02:45:09.508Z,0.1
2023-01-19T02:46:09.570Z,0.1
2023-01-19T02:47:09.709Z,0.1
2023-01-19T02:48:09.492Z,0
2023-01-19T02:49:09.489Z,0.1
2023-01-19T02:50:09.494Z,0
2023-01-19T02:51:09.498Z,0
2023-01-19T02:52:09.744Z,0
2023-01-19T02:53:09.484Z,0
2023-01-19T02:54:09.499Z,0
2023-01-19T02:55:09.484Z,0
2023-01-19T02:56:09.487Z,0
2023-01-19T02:57:09.948Z,0
2023-01-19T02:58:09.827Z,0
2023-01-19T02:59:09.488Z,0.1
2023-01-19T03:00:09.685Z,0.1
2023-01-19T03:01:09.616Z,0.1
2023-01-19T03:02:09.842Z,0.1
2023-01-19T03:03:09.535Z,0.1
2023-01-19T03:04:09.719Z,0.1
2023-01-19T03:05:09.483Z,0.1
2023-01-19T03:06:09.764Z,0.1
2023-01-19T03:07:09.953Z,0.1
2023-01-19T03:08:09.759Z,0.1
2023-01-19T03:09:09.616Z,0.1
2023-01-19T03:10:09.763Z,0.1
2023-01-19T03:11:09.583Z,0.1
2023-01-19T03:12:10.361Z,0.1
2023-01-19T03:13:09.624Z,0.1
2023-01-19T03:14:09.487Z,0.1
2023-01-19T03:15:09.487Z,0.1
2023-01-19T03:16:09.579Z,0.1
2023-01-19T03:17:09.502Z,0.1
2023-01-19T03:18:09.495Z,0
2023-01-19T03:19:09.484Z,0
2023-01-19T03:20:09.484Z,0
2023-01-19T03:21:09.510Z,0
2023-01-19T03:22:09.485Z,0
2023-01-19T03:23:09.487Z,0
2023-01-19T03:24:09.485Z,0
2023-01-19T03:25:09.486Z,0.1
2023-01-19T03:26:09.532Z,0.1
2023-01-19T03:27:09.490Z,0.1
2023-01-19T03:28:09.495Z,0.1
2023-01-19T03:29:09.488Z,0.1
2023-01-19T03:30:09.487Z,0.1
2023-01-19T03:31:09.566Z,0.1
2023-01-19T03:32:09.495Z,0.1
2023-01-19T03:33:09.486Z,0.1
2023-01-19T03:34:09.488Z,0.1
2023-01-19T03:35:09.485Z,0.1
2023-01-19T03:36:09.510Z,0.1
2023-01-19T03:37:09.488Z,0.1
2023-01-19T03:38:09.487Z,0.1
2023-01-19T03:39:09.481Z,0
2023-01-19T03:40:09.487Z,0
2023-01-19T03:41:09.492Z,0
2023-01-19T03:42:09.711Z,0
2023-01-19T03:43:09.492Z,0
2023-01-19T03:44:09.506Z,0
2023-01-19T03:45:09.489Z,-0.1
2023-01-19T03:46:09.505Z,-0.1
2023-01-19T03:47:09.487Z,-0.1
2023-01-19T03:48:09.489Z,-0.1
2023-01-19T03:49:09.481Z,-0.1
2023-01-19T03:50:09.500Z,-0.1
2023-01-19T03:51:09.498Z,-0.1
2023-01-19T03:52:09.487Z,0
2023-01-19T03:53:09.586Z,0
2023-01-19T03:54:09.487Z,0
2023-01-19T03:55:09.512Z,0
2023-01-19T03:56:09.484Z,0
2023-01-19T03:57:09.483Z,0
2023-01-19T03:58:09.485Z,0
2023-01-19T03:59:09.487Z,0
2023-01-19T04:00:09.509Z,0
2023-01-19T04:01:09.612Z,0
2023-01-19T04:02:09.540Z,0
2023-01-19T04:03:09.520Z,0
2023-01-19T04:04:09.484Z,0
2023-01-19T04:05:09.508Z,0
2023-01-19T04:06:09.495Z,0
2023-01-19T04:07:09.484Z,0
2023-01-19T04:08:09.487Z,0
2023-01-19T04:09:09.499Z,0
2023-01-19T04:10:09.480Z,0.1
2023-01-19T04:11:09.482Z,0.1
2023-01-19T04:12:09.491Z,0.1
2023-01-19T04:13:09.490Z,0.1
2023-01-19T04:14:09.482Z,0.1
2023-01-19T04:15:09.496Z,0.1
2023-01-19T04:16:09.544Z,0.1
2023-01-19T04:17:09.489Z,0.1
2023-01-19T04:18:09.491Z,0.1
2023-01-19T04:19:09.488Z,0.1
2023-01-19T04:20:09.490Z,0.1
2023-01-19T04:21:09.491Z,0.1
2023-01-19T04:22:09.586Z,0.2
2023-01-19T04:23:09.483Z,0.3
2023-01-19T04:24:09.498Z,0.3
2023-01-19T04:25:09.498Z,0.4
2023-01-19T04:26:09.487Z,0.5
2023-01-19T04:27:09.483Z,0.5
2023-01-19T04:28:09.484Z,0.6
2023-01-19T04:29:09.488Z,0.6
2023-01-19T04:30:09.494Z,0.7
2023-01-19T04:31:09.530Z,0.8
2023-01-19T04:32:09.484Z,0.8
2023-01-19T04:33:09.479Z,0.8
2023-01-19T04:34:09.490Z,0.9
2023-01-19T04:35:09.486Z,0.9
2023-01-19T04:36:09.537Z,1
2023-01-19T04:37:09.506Z,1
2023-01-19T04:38:09.480Z,1.1
2023-01-19T04:39:09.486Z,1.1
2023-01-19T04:40:09.501Z,1.1
2023-01-19T04:41:09.482Z,1.1
2023-01-19T04:42:09.506Z,1.1
2023-01-19T04:43:09.487Z,1.1
2023-01-19T04:44:09.498Z,1.1
2023-01-19T04:45:09.486Z,1.1
2023-01-19T04:46:09.517Z,1.1
2023-01-19T04:47:09.482Z,1.2
2023-01-19T04:48:09.493Z,1.2
2023-01-19T04:49:09.482Z,1.2
2023-01-19T04:50:09.505Z,1.3
2023-01-19T04:51:09.488Z,1.3
2023-01-19T04:52:09.490Z,1.3
2023-01-19T04:53:09.485Z,1.4
2023-01-19T04:54:09.519Z,1.4
2023-01-19T04:55:09.520Z,1.4
2023-01-19T04:56:09.488Z,1.4
2023-01-19T04:57:09.486Z,1.4
2023-01-19T04:58:09.483Z,1.4
2023-01-19T04:59:09.486Z,1.4
2023-01-19T05:00:09.636Z,1.5
2023-01-19T05:01:10.031Z,1.5
2023-01-19T05:02:09.526Z,1.5
2023-01-19T05:03:09.697Z,1.5
2023-01-19T05:04:09.512Z,1.5
2023-01-19T05:05:09.509Z,1.5
2023-01-19T05:06:09.494Z,1.5
2023-01-19T05:07:09.488Z,1.5
2023-01-19T05:08:09.485Z,1.5
2023-01-19T05:09:09.492Z,1.5
2023-01-19T05:10:09.496Z,1.5
2023-01-19T05:11:09.490Z,1.6
2023-01-19T05:12:09.510Z,1.6
2023-01-19T05:13:09.501Z,1.6
2023-01-19T05:14:09.489Z,1.6
2023-01-19T05:15:09.495Z,1.6
2023-01-19T05:16:09.563Z,1.7
2023-01-19T05:17:09.507Z,1.7
2023-01-19T05:18:09.492Z,1.7
2023-01-19T05:19:09.495Z,1.7
2023-01-19T05:20:09.496Z,1.7
2023-01-19T05:21:09.495Z,1.8
2023-01-19T05:22:09.511Z,1.8
2023-01-19T05:23:09.487Z,1.8
2023-01-19T05:24:09.482Z,1.7
2023-01-19T05:25:09.494Z,1.7
2023-01-19T05:26:09.636Z,1.7
2023-01-19T05:27:09.482Z,1.7
2023-01-19T05:28:09.493Z,1.7
2023-01-19T05:29:09.488Z,1.7
2023-01-19T05:30:09.516Z,1.7
2023-01-19T05:31:09.563Z,1.7
2023-01-19T05:32:09.507Z,1.7
2023-01-19T05:33:09.493Z,1.7
2023-01-19T05:34:09.491Z,1.7
2023-01-19T05:35:09.489Z,1.7
2023-01-19T05:36:09.495Z,1.7
2023-01-19T05:37:09.507Z,1.7
2023-01-19T05:38:09.500Z,1.7
2023-01-19T05:39:09.495Z,1.7
2023-01-19T05:40:09.487Z,1.7
2023-01-19T05:41:09.502Z,1.7
2023-01-19T05:42:09.486Z,1.7
2023-01-19T05:43:09.496Z,1.7
2023-01-19T05:44:09.493Z,1.7
2023-01-19T05:45:09.490Z,1.8
2023-01-19T05:46:09.488Z,1.8
2023-01-19T05:47:09.489Z,1.8
2023-01-19T05:48:10.230Z,1.7
2023-01-19T05:49:09.510Z,1.7
2023-01-19T05:50:09.482Z,1.7
2023-01-19T05:51:09.487Z,1.7
2023-01-19T05:52:09.496Z,1.6
2023-01-19T05:53:09.487Z,1.6
2023-01-19T05:54:09.486Z,1.5
2023-01-19T05:55:09.505Z,1.4
2023-01-19T05:56:09.487Z,1.4
2023-01-19T05:57:09.485Z,1.3
2023-01-19T05:58:09.487Z,1.2
2023-01-19T05:59:09.485Z,1.2
2023-01-19T06:00:09.499Z,1.1
2023-01-19T06:01:09.521Z,1.1
2023-01-19T06:02:09.550Z,1
2023-01-19T06:03:09.494Z,0.9
2023-01-19T06:04:09.484Z,0.8
2023-01-19T06:05:09.485Z,0.8
2023-01-19T06:06:09.496Z,0.8
2023-01-19T06:07:09.500Z,0.7
2023-01-19T06:08:09.480Z,0.6
2023-01-19T06:09:09.490Z,0.6
2023-01-19T06:10:09.480Z,0.5
2023-01-19T06:11:09.479Z,0.5
2023-01-19T06:12:09.487Z,0.5
2023-01-19T06:13:09.486Z,0.5
2023-01-19T06:14:09.797Z,0.5
2023-01-19T06:15:09.481Z,0.5
2023-01-19T06:16:09.801Z,0.5
2023-01-19T06:17:09.977Z,0.5
2023-01-19T06:18:10.215Z,0.5
2023-01-19T06:19:09.486Z,0.5
2023-01-19T06:20:09.480Z,0.5
2023-01-19T06:21:09.505Z,0.5
2023-01-19T06:22:09.482Z,0.5
2023-01-19T06:23:09.483Z,0.4
2023-01-19T06:24:09.483Z,0.4
2023-01-19T06:25:09.487Z,0.4
2023-01-19T06:26:09.482Z,0.4
2023-01-19T06:27:09.481Z,0.4
2023-01-19T06:28:09.487Z,0.4
2023-01-19T06:29:09.480Z,0.4
2023-01-19T06:30:09.494Z,0.4
2023-01-19T06:31:09.506Z,0.4
2023-01-19T06:32:09.490Z,0.4
2023-01-19T06:33:09.497Z,0.4
2023-01-19T06:34:09.494Z,0.4
2023-01-19T06:35:09.482Z,0.4
2023-01-19T06:36:09.509Z,0.4
2023-01-19T06:37:09.488Z,0.4
2023-01-19T06:38:09.483Z,0.4
2023-01-19T06:39:09.487Z,0.4
2023-01-19T06:40:09.490Z,0.4
2023-01-19T06:41:09.480Z,0.4
2023-01-19T06:42:09.526Z,0.4
2023-01-19T06:43:09.813Z,0.4
2023-01-19T06:44:09.846Z,0.4
2023-01-19T06:45:09.605Z,0.4
2023-01-19T06:46:09.793Z,0.4
2023-01-19T06:47:14.778Z,0.4
2023-01-19T06:48:09.645Z,0.5
2023-01-19T06:49:09.487Z,0.5
2023-01-19T06:50:09.496Z,0.4
2023-01-19T06:51:09.482Z,0.5
2023-01-19T06:52:09.487Z,0.5
2023-01-19T06:53:09.493Z,0.5
2023-01-19T06:54:09.497Z,0.5
2023-01-19T06:55:09.490Z,0.4
2023-01-19T06:56:09.717Z,0.4
2023-01-19T06:57:09.487Z,0.4
2023-01-19T06:58:09.490Z,0.4
2023-01-19T06:59:09.482Z,0.4
2023-01-19T07:00:09.484Z,0.4
2023-01-19T07:01:09.630Z,0.4
2023-01-19T07:02:27.184Z,0.4
2023-01-19T07:03:09.565Z,0.3
2023-01-19T07:04:09.487Z,0.4
2023-01-19T07:05:09.489Z,0.4
2023-01-19T07:06:09.503Z,0.4
2023-01-19T07:07:09.483Z,0.4
2023-01-19T07:08:09.485Z,0.4
2023-01-19T07:09:09.488Z,0.4
2023-01-19T07:10:09.487Z,0.3
2023-01-19T07:11:22.459Z,0.4
2023-01-19T07:12:09.490Z,0.3
2023-01-19T07:13:09.482Z,0.3
2023-01-19T07:14:09.494Z,0.3
2023-01-19T07:15:09.483Z,0.2
2023-01-19T07:16:09.504Z,0.2
2023-01-19T07:17:09.519Z,0.2
2023-01-19T07:18:09.778Z,0.1
2023-01-19T07:19:09.499Z,0.1
2023-01-19T07:20:09.511Z,0.1
2023-01-19T07:21:09.491Z,0.1
2023-01-19T07:22:09.486Z,0.1
2023-01-19T07:23:09.497Z,0.1
2023-01-19T07:24:09.622Z,0
2023-01-19T07:25:09.760Z,0
2023-01-19T07:26:09.683Z,0
2023-01-19T07:27:09.495Z,0
2023-01-19T07:28:09.784Z,-0.1
2023-01-19T07:29:09.511Z,-0.1
2023-01-19T07:30:09.781Z,-0.1
2023-01-19T07:31:09.719Z,-0.1
2023-01-19T07:32:09.780Z,-0.1
2023-01-19T07:33:09.682Z,-0.1
2023-01-19T07:34:11.183Z,-0.1
2023-01-19T07:35:09.488Z,-0.1
2023-01-19T07:36:09.500Z,-0.1
2023-01-19T07:37:09.490Z,-0.1
2023-01-19T07:38:09.543Z,-0.1
2023-01-19T07:39:09.489Z,-0.1
2023-01-19T07:40:09.491Z,-0.1
2023-01-19T07:41:09.483Z,-0.1
2023-01-19T07:42:09.488Z,0
2023-01-19T07:43:09.506Z,0
2023-01-19T07:44:09.507Z,0
2023-01-19T07:45:09.488Z,0
2023-01-19T07:46:09.558Z,0
2023-01-19T07:47:09.493Z,0
2023-01-19T07:48:09.516Z,0
2023-01-19T07:49:09.497Z,0
2023-01-19T07:50:09.499Z,0
2023-01-19T07:51:12.595Z,0
2023-01-19T07:52:09.521Z,0
2023-01-19T07:53:09.502Z,0
2023-01-19T07:54:09.484Z,0
2023-01-19T07:55:09.492Z,0
2023-01-19T07:56:09.492Z,0
2023-01-19T07:57:09.487Z,0
2023-01-19T07:58:09.510Z,0
2023-01-19T07:59:09.504Z,0
2023-01-19T08:00:09.491Z,0
2023-01-19T08:01:09.689Z,0.1
2023-01-19T08:02:09.514Z,0.1
2023-01-19T08:03:09.494Z,0.1
2023-01-19T08:04:09.594Z,0.1
2023-01-19T08:05:09.491Z,0.1
2023-01-19T08:06:09.504Z,0.1
2023-01-19T08:07:09.484Z,0.1
2023-01-19T08:08:09.493Z,0.1
2023-01-19T08:09:09.494Z,0.1
2023-01-19T08:10:09.512Z,0.1
2023-01-19T08:11:09.489Z,0.1
2023-01-19T08:12:09.482Z,0.1
2023-01-19T08:13:09.495Z,0.1
2023-01-19T08:14:09.501Z,0.1
2023-01-19T08:15:09.501Z,0.1
2023-01-19T08:16:09.585Z,0.1
2023-01-19T08:17:09.488Z,0.1
2023-01-19T08:18:09.492Z,0.2
2023-01-19T08:19:09.491Z,0.2
2023-01-19T08:20:09.719Z,0.2
2023-01-19T08:21:09.494Z,0.2
2023-01-19T08:22:09.483Z,0.2
2023-01-19T08:23:09.498Z,0.2
2023-01-19T08:24:09.507Z,0.3
2023-01-19T08:25:09.517Z,0.3
2023-01-19T08:26:09.490Z,0.3
2023-01-19T08:27:09.497Z,0.3
2023-01-19T08:28:09.489Z,0.3
2023-01-19T08:29:09.495Z,0.3
2023-01-19T08:30:09.527Z,0.3
2023-01-19T08:31:19.615Z,0.4
2023-01-19T08:32:09.578Z,0.4
2023-01-19T08:33:09.491Z,0.4
2023-01-19T08:34:09.825Z,0.4
2023-01-19T08:35:09.884Z,0.4
2023-01-19T08:36:09.596Z,0.4
2023-01-19T08:37:09.489Z,0.4
2023-01-19T08:38:09.502Z,0.4
2023-01-19T08:39:09.491Z,0.5
2023-01-19T08:40:09.513Z,0.5
2023-01-19T08:41:09.497Z,0.5
2023-01-19T08:42:09.494Z,0.5
2023-01-19T08:43:09.531Z,0.5
2023-01-19T08:44:09.500Z,0.5
2023-01-19T08:45:09.537Z,0.5
2023-01-19T08:46:09.549Z,0.5
2023-01-19T08:47:09.561Z,0.5
2023-01-19T08:48:09.490Z,0.5
2023-01-19T08:49:09.492Z,0.5
2023-01-19T08:50:09.512Z,0.5
2023-01-19T08:51:09.488Z,0.5
2023-01-19T08:52:09.491Z,0.5
2023-01-19T08:53:09.486Z,0.5
2023-01-19T08:54:09.490Z,0.5
2023-01-19T08:55:09.516Z,0.5
2023-01-19T08:56:09.491Z,0.5
2023-01-19T08:57:09.494Z,0.5
2023-01-19T08:58:09.499Z,0.5
2023-01-19T08:59:11.391Z,0.5
2023-01-19T09:00:09.512Z,0.5
2023-01-19T09:01:09.524Z,0.5
2023-01-19T09:02:09.528Z,0.5
2023-01-19T09:03:09.570Z,0.5
2023-01-19T09:04:09.489Z,0.5
2023-01-19T09:05:09.497Z,0.5
2023-01-19T09:06:09.489Z,0.5
2023-01-19T09:07:09.499Z,0.5
2023-01-19T09:08:09.514Z,0.5
2023-01-19T09:09:09.491Z,0.5
2023-01-19T09:10:09.505Z,0.5
2023-01-19T09:11:09.494Z,0.5
2023-01-19T09:12:09.484Z,0.6
2023-01-19T09:13:09.489Z,0.6
2023-01-19T09:14:09.523Z,0.6
2023-01-19T09:15:09.551Z,0.6
2023-01-19T09:16:09.534Z,0.6
2023-01-19T09:17:09.486Z,0.6
2023-01-19T09:18:09.488Z,0.6
2023-01-19T09:19:09.494Z,0.6
2023-01-19T09:20:09.499Z,0.7
2023-01-19T09:21:09.505Z,0.6
2023-01-19T09:22:09.485Z,0.7
2023-01-19T09:23:09.489Z,0.7
2023-01-19T09:24:09.488Z,0.7
2023-01-19T09:25:09.493Z,0.7
2023-01-19T09:26:09.492Z,0.7
2023-01-19T09:27:09.494Z,0.7
2023-01-19T09:28:09.499Z,0.8
2023-01-19T09:29:09.490Z,0.8
2023-01-19T09:30:09.691Z,0.8
2023-01-19T09:31:09.634Z,0.8
2023-01-19T09:32:09.482Z,0.8
2023-01-19T09:33:09.488Z,0.8
2023-01-19T09:34:09.489Z,0.8
2023-01-19T09:35:09.505Z,0.8
2023-01-19T09:36:09.487Z,0.8
2023-01-19T09:37:09.491Z,0.8
2023-01-19T09:38:09.495Z,0.8
2023-01-19T09:39:09.497Z,0.8
2023-01-19T09:40:09.495Z,0.8
2023-01-19T09:41:09.491Z,0.8
2023-01-19T09:42:09.493Z,0.8
2023-01-19T09:43:09.489Z,0.8
2023-01-19T09:44:09.586Z,0.8
2023-01-19T09:45:10.887Z,0.8
2023-01-19T09:46:09.501Z,0.8
2023-01-19T09:47:09.515Z,0.8
2023-01-19T09:48:09.488Z,0.8
2023-01-19T09:49:09.487Z,0.8
2023-01-19T09:50:09.504Z,0.8
2023-01-19T09:51:09.490Z,0.8
2023-01-19T09:52:09.595Z,0.8
2023-01-19T09:53:09.495Z,0.9
2023-01-19T09:54:09.528Z,0.9
2023-01-19T09:55:09.484Z,0.9
2023-01-19T09:56:09.489Z,1
2023-01-19T09:57:09.494Z,1
2023-01-19T09:58:09.486Z,1
2023-01-19T09:59:09.494Z,1
2023-01-19T10:00:09.493Z,1
2023-01-19T10:01:09.583Z,1
2023-01-19T10:02:09.492Z,1
2023-01-19T10:03:09.558Z,1
2023-01-19T10:04:09.481Z,1
2023-01-19T10:05:09.494Z,1
2023-01-19T10:06:09.490Z,1
2023-01-19T10:07:09.494Z,1
2023-01-19T10:08:09.483Z,1
2023-01-19T10:09:09.489Z,1
2023-01-19T10:10:09.495Z,1
2023-01-19T10:11:09.489Z,1
2023-01-19T10:12:09.592Z,1
2023-01-19T10:13:09.495Z,0.9
2023-01-19T10:14:11.228Z,0.9
2023-01-19T10:15:09.488Z,0.9
2023-01-19T10:16:09.569Z,0.9
2023-01-19T10:17:09.747Z,0.9
2023-01-19T10:18:09.823Z,0.9
2023-01-19T10:19:09.634Z,0.9
2023-01-19T10:20:09.487Z,0.9
2023-01-19T10:21:09.694Z,0.9
2023-01-19T10:22:09.527Z,0.8
2023-01-19T10:23:09.489Z,0.8
2023-01-19T10:24:09.492Z,0.8
2023-01-19T10:25:09.492Z,0.8
2023-01-19T10:26:09.490Z,0.8
2023-01-19T10:27:09.509Z,0.8
2023-01-19T10:28:09.495Z,0.9
2023-01-19T10:29:10.950Z,0.8
2023-01-19T10:30:09.501Z,0.9
2023-01-19T10:31:09.685Z,0.9
2023-01-19T10:32:09.607Z,0.9
2023-01-19T10:33:09.508Z,0.9
2023-01-19T10:34:09.487Z,0.9
2023-01-19T10:35:09.494Z,1
2023-01-19T10:36:09.492Z,1
2023-01-19T10:37:09.536Z,1
2023-01-19T10:38:09.501Z,1
2023-01-19T10:39:09.556Z,1.1
2023-01-19T10:40:09.488Z,1.1
2023-01-19T10:41:09.493Z,1.1
2023-01-19T10:42:09.521Z,1.1
2023-01-19T10:43:09.535Z,1.1
2023-01-19T10:44:09.509Z,1.1
2023-01-19T10:45:09.494Z,1.1
2023-01-19T10:46:09.581Z,1.1
2023-01-19T10:47:09.492Z,1.2
2023-01-19T10:48:09.515Z,1.2
2023-01-19T10:49:09.539Z,1.2
2023-01-19T10:50:09.510Z,1.2
2023-01-19T10:51:09.489Z,1.3
2023-01-19T10:52:09.509Z,1.3
2023-01-19T10:53:09.527Z,1.3
2023-01-19T10:54:09.776Z,1.4
2023-01-19T10:55:09.489Z,1.4
2023-01-19T10:56:09.541Z,1.4
2023-01-19T10:57:09.504Z,1.4
2023-01-19T10:58:09.709Z,1.4
2023-01-19T10:59:09.589Z,1.4
2023-01-19T11:00:09.797Z,1.5
2023-01-19T11:01:09.750Z,1.5
2023-01-19T11:02:09.650Z,1.5
2023-01-19T11:03:09.570Z,1.6
2023-01-19T11:04:09.700Z,1.6
2023-01-19T11:05:09.508Z,1.6
2023-01-19T11:06:09.648Z,1.6
2023-01-19T11:07:09.517Z,1.7
2023-01-19T11:08:09.781Z,1.7
2023-01-19T11:09:09.490Z,1.7
2023-01-19T11:10:09.506Z,1.8
2023-01-19T11:11:09.493Z,1.8
2023-01-19T11:12:09.490Z,1.8
2023-01-19T11:13:09.509Z,1.8
2023-01-19T11:14:09.495Z,1.8
2023-01-19T11:15:09.490Z,1.8
2023-01-19T11:16:11.596Z,1.9
2023-01-19T11:17:09.496Z,1.9
2023-01-19T11:18:09.520Z,2
2023-01-19T11:19:09.508Z,2
2023-01-19T11:20:09.486Z,2.1
2023-01-19T11:21:09.522Z,2.1
2023-01-19T11:22:09.495Z,2.1
2023-01-19T11:23:09.520Z,2.1
2023-01-19T11:24:09.587Z,2.1
2023-01-19T11:25:09.487Z,2.1
2023-01-19T11:26:09.489Z,2.2
2023-01-19T11:27:09.484Z,2.2
2023-01-19T11:28:09.510Z,2.2
2023-01-19T11:29:09.491Z,2.2
2023-01-19T11:30:09.504Z,2.2
2023-01-19T11:31:09.512Z,2.2
2023-01-19T11:32:09.528Z,2.3
2023-01-19T11:33:09.527Z,2.3
2023-01-19T11:34:09.484Z,2.3
2023-01-19T11:35:09.505Z,2.3
2023-01-19T11:36:09.491Z,2.3
2023-01-19T11:37:09.506Z,2.4
2023-01-19T11:38:09.526Z,2.4
2023-01-19T11:39:09.503Z,2.4
2023-01-19T11:40:09.497Z,2.4
2023-01-19T11:41:09.490Z,2.4
2023-01-19T11:42:09.485Z,2.4
2023-01-19T11:43:09.513Z,2.4
2023-01-19T11:44:09.487Z,2.4
2023-01-19T11:45:09.513Z,2.4
2023-01-19T11:46:09.529Z,2.5
2023-01-19T11:47:09.495Z,2.5
2023-01-19T11:48:09.505Z,2.5
2023-01-19T11:49:09.488Z,2.5
2023-01-19T11:50:09.490Z,2.5
2023-01-19T11:51:09.493Z,2.5
2023-01-19T11:52:09.493Z,2.5
2023-01-19T11:53:09.489Z,2.5
2023-01-19T11:54:09.511Z,2.5
2023-01-19T11:55:09.491Z,2.5
2023-01-19T11:56:09.489Z,2.5
2023-01-19T11:57:09.490Z,2.5
2023-01-19T11:58:09.483Z,2.5
2023-01-19T11:59:09.496Z,2.5
2023-01-19T12:00:09.483Z,2.5
2023-01-19T12:01:09.555Z,2.5
2023-01-19T12:02:09.587Z,2.5
2023-01-19T12:03:09.529Z,2.5
2023-01-19T12:04:09.489Z,2.5
2023-01-19T12:05:09.484Z,2.5
2023-01-19T12:06:09.488Z,2.5
2023-01-19T12:07:09.559Z,2.5
2023-01-19T12:08:09.694Z,2.5
2023-01-19T12:09:09.509Z,2.5
2023-01-19T12:10:09.644Z,2.4
2023-01-19T12:11:09.496Z,2.4
2023-01-19T12:12:09.505Z,2.4
2023-01-19T12:13:09.504Z,2.4
2023-01-19T12:14:09.501Z,2.4
2023-01-19T12:15:09.492Z,2.4
2023-01-19T12:16:09.631Z,2.4
2023-01-19T12:17:09.515Z,2.4
2023-01-19T12:18:09.490Z,2.4
2023-01-19T12:19:09.489Z,2.4
2023-01-19T12:20:09.484Z,2.4
2023-01-19T12:21:09.495Z,2.4
2023-01-19T12:22:09.715Z,2.4
2023-01-19T12:23:09.508Z,2.4
2023-01-19T12:24:09.499Z,2.4
2023-01-19T12:25:09.489Z,2.4
2023-01-19T12:26:09.545Z,2.4
2023-01-19T12:27:09.485Z,2.4
2023-01-19T12:28:09.508Z,2.4
2023-01-19T12:29:09.571Z,2.4
2023-01-19T12:30:09.756Z,2.4
2023-01-19T12:31:09.590Z,2.4
2023-01-19T12:32:09.489Z,2.5
2023-01-19T12:33:09.661Z,2.5
2023-01-19T12:34:09.492Z,2.5
2023-01-19T12:35:09.497Z,2.5
2023-01-19T12:36:09.490Z,2.5
2023-01-19T12:37:09.495Z,2.5
2023-01-19T12:38:09.487Z,2.5
2023-01-19T12:39:09.488Z,2.5
2023-01-19T12:40:09.485Z,2.5
2023-01-19T12:41:09.493Z,2.5
2023-01-19T12:42:09.490Z,2.5
2023-01-19T12:43:09.492Z,2.5
2023-01-19T12:44:09.490Z,2.5
2023-01-19T12:45:09.484Z,2.6
2023-01-19T12:46:09.530Z,2.6
2023-01-19T12:47:09.484Z,2.6
2023-01-19T12:48:09.495Z,2.6
2023-01-19T12:49:09.490Z,2.6
2023-01-19T12:50:09.677Z,2.6
2023-01-19T12:51:09.487Z,2.7
2023-01-19T12:52:09.494Z,2.7
2023-01-19T12:53:09.488Z,2.7
2023-01-19T12:54:09.489Z,2.7
2023-01-19T12:55:09.494Z,2.7
2023-01-19T12:56:09.484Z,2.7
2023-01-19T12:57:09.482Z,2.7
2023-01-19T12:58:09.493Z,2.7
2023-01-19T12:59:09.487Z,2.7
2023-01-19T13:00:09.497Z,2.7
2023-01-19T13:01:09.647Z,2.7
2023-01-19T13:02:09.550Z,2.6
2023-01-19T13:03:09.516Z,2.6
2023-01-19T13:04:09.496Z,2.6
2023-01-19T13:05:09.487Z,2.6
2023-01-19T13:06:09.483Z,2.6
2023-01-19T13:07:09.511Z,2.6
2023-01-19T13:08:09.521Z,2.6
2023-01-19T13:09:09.486Z,2.6
2023-01-19T13:10:09.519Z,2.6
2023-01-19T13:11:09.518Z,2.5
2023-01-19T13:12:09.507Z,2.5
2023-01-19T13:13:09.490Z,2.5
2023-01-19T13:14:09.483Z,2.5
2023-01-19T13:15:09.493Z,2.5
2023-01-19T13:16:09.570Z,2.5
2023-01-19T13:17:09.500Z,2.5
2023-01-19T13:18:09.491Z,2.5
2023-01-19T13:19:09.500Z,2.5
2023-01-19T13:20:09.490Z,2.5
2023-01-19T13:21:09.514Z,2.5
2023-01-19T13:22:09.592Z,2.5
2023-01-19T13:23:09.682Z,2.5
2023-01-19T13:24:09.490Z,2.4
2023-01-19T13:25:09.495Z,2.4
2023-01-19T13:26:09.492Z,2.4
2023-01-19T13:27:09.495Z,2.4
2023-01-19T13:28:09.488Z,2.4
2023-01-19T13:29:09.486Z,2.4
2023-01-19T13:30:09.488Z,2.5
2023-01-19T13:31:09.534Z,2.5
2023-01-19T13:32:09.495Z,2.5
2023-01-19T13:33:09.486Z,2.5
2023-01-19T13:34:09.510Z,2.5
2023-01-19T13:35:09.498Z,2.5
2023-01-19T13:36:09.484Z,2.5
2023-01-19T13:37:09.483Z,2.5
2023-01-19T13:38:09.487Z,2.5
2023-01-19T13:39:09.486Z,2.5
2023-01-19T13:40:09.483Z,2.5
2023-01-19T13:41:09.487Z,2.5
2023-01-19T13:42:09.488Z,2.5
2023-01-19T13:43:09.489Z,2.5
2023-01-19T13:44:09.493Z,2.5
2023-01-19T13:45:09.492Z,2.5
2023-01-19T13:46:09.506Z,2.5
2023-01-19T13:47:09.489Z,2.4